Time;durP1;ratioP1;P1;durP2;ratioP2;P2;SDS_P1;SDS_P2;PMS_P1;PMS_P2;Temp;Humidity;BMP_temperature;BMP_pressure;BME280_temperature;BME280_humidity;BME280_pressure;Samples;Min_cycle;Max_cycle;Signal;HPM_P1;HPM_P2
2022/05/17 04:01:56;;;;;;;9.97;9.17;;;15.20;99.90;;;;;;5313829;22;20478;-65
2022/05/17 04:04:22;;;;;;;11.00;9.50;;;15.20;99.90;;;;;;4996746;28;20492;-64
2022/05/17 04:06:49;;;;;;;9.70;8.83;;;15.30;99.90;;;;;;4996540;28;20458;-65
2022/05/17 04:09:16;;;;;;;8.90;8.20;;;15.30;99.90;;;;;;4996726;28;20453;-66
2022/05/17 04:11:43;;;;;;;8.73;7.50;;;15.30;99.90;;;;;;4996436;28;20473;-64
2022/05/17 04:14:10;;;;;;;9.40;8.50;;;15.30;99.90;;;;;;4996699;28;20454;-64
2022/05/17 04:16:39;;;;;;;9.67;8.30;;;15.30;99.90;;;;;;5007443;28;20468;-65
2022/05/17 04:19:09;;;;;;;9.67;8.80;;;15.20;99.90;;;;;;5009804;28;20461;-64
2022/05/17 04:21:36;;;;;;;10.57;9.23;;;15.20;99.90;;;;;;5001980;28;20477;-63
2022/05/17 04:24:02;;;;;;;9.33;8.33;;;15.30;99.90;;;;;;4997323;28;20971;-63
2022/05/17 04:26:29;;;;;;;12.30;9.20;;;15.30;99.90;;;;;;4996299;28;20457;-64
2022/05/17 04:28:56;;;;;;;10.03;9.10;;;15.30;99.90;;;;;;4996335;28;20832;-65
2022/05/17 04:31:23;;;;;;;9.90;8.90;;;15.40;99.90;;;;;;4996152;28;20477;-63
2022/05/17 04:33:50;;;;;;;9.93;9.07;;;15.40;99.90;;;;;;4996597;28;20461;-64
2022/05/17 04:36:18;;;;;;;12.40;9.70;;;15.40;99.90;;;;;;4996863;28;20844;-65
2022/05/17 04:38:45;;;;;;;10.83;9.63;;;15.40;99.90;;;;;;4996906;28;20889;-64
2022/05/17 04:41:12;;;;;;;11.10;9.97;;;15.40;99.90;;;;;;4996141;28;20528;-64
2022/05/17 04:43:39;;;;;;;13.40;9.50;;;15.40;99.90;;;;;;4996133;28;20512;-64
2022/05/17 04:46:06;;;;;;;15.63;10.80;;;15.50;99.90;;;;;;4995808;28;20485;-64
2022/05/17 04:48:33;;;;;;;14.03;11.10;;;15.50;99.90;;;;;;4995234;28;20940;-64
2022/05/17 04:51:00;;;;;;;13.47;10.83;;;15.50;99.90;;;;;;4995868;28;20473;-63
2022/05/17 04:53:28;;;;;;;11.73;10.20;;;15.50;99.90;;;;;;4995709;28;20454;-63
2022/05/17 04:55:55;;;;;;;12.23;11.10;;;15.50;99.90;;;;;;4995610;28;20482;-65
2022/05/17 04:58:22;;;;;;;12.40;11.00;;;15.40;99.90;;;;;;4995690;28;20458;-64
2022/05/17 05:00:48;;;;;;;12.60;10.53;;;15.40;99.90;;;;;;4995597;28;20485;-64
2022/05/17 05:03:15;;;;;;;11.53;10.43;;;15.40;99.90;;;;;;4995671;28;20446;-65
2022/05/17 05:05:42;;;;;;;13.00;9.80;;;15.40;99.90;;;;;;4995182;28;21012;-64
2022/05/17 05:08:09;;;;;;;14.43;10.37;;;15.40;99.90;;;;;;4995897;28;20549;-64
2022/05/17 05:10:37;;;;;;;12.27;9.80;;;15.50;99.90;;;;;;4995227;28;20477;-64
2022/05/17 05:13:04;;;;;;;11.60;10.53;;;15.50;99.90;;;;;;4994990;28;20461;-64
2022/05/17 05:15:31;;;;;;;10.60;9.60;;;15.50;99.90;;;;;;4995308;28;20449;-64
2022/05/17 05:17:58;;;;;;;12.10;10.63;;;15.50;99.90;;;;;;4996426;28;20792;-65
2022/05/17 05:20:25;;;;;;;12.67;10.20;;;15.60;99.90;;;;;;4996563;28;20520;-64
2022/05/17 05:22:52;;;;;;;10.60;8.60;;;15.70;99.90;;;;;;4995324;28;20457;-64
2022/05/17 05:25:18;;;;;;;9.73;8.50;;;15.90;99.90;;;;;;4995043;28;20525;-64
2022/05/17 05:27:47;;;;;;;9.33;8.53;;;16.10;99.90;;;;;;4995287;28;20461;-64
2022/05/17 05:30:15;;;;;;;9.73;8.60;;;16.50;99.90;;;;;;4994674;28;20507;-64
2022/05/17 05:32:43;;;;;;;9.53;8.50;;;16.70;99.90;;;;;;4994650;28;20461;-64
2022/05/17 05:35:10;;;;;;;9.07;8.07;;;16.80;99.90;;;;;;4994935;28;20457;-64
2022/05/17 05:37:38;;;;;;;13.80;9.30;;;16.90;99.90;;;;;;4994927;28;20457;-64
2022/05/17 05:40:06;;;;;;;14.40;10.03;;;17.00;99.90;;;;;;4994739;28;20450;-63
2022/05/17 05:42:32;;;;;;;10.63;9.53;;;17.00;99.90;;;;;;4994588;28;20992;-64
2022/05/17 05:45:00;;;;;;;9.73;8.90;;;17.10;99.90;;;;;;4994255;28;21005;-65
2022/05/17 05:47:27;;;;;;;10.20;9.23;;;17.10;99.90;;;;;;4994644;28;20794;-64
2022/05/17 05:49:54;;;;;;;11.13;9.50;;;17.10;99.90;;;;;;4994615;28;20454;-64
2022/05/17 05:52:20;;;;;;;11.03;9.93;;;17.20;99.90;;;;;;4994639;28;20497;-65
2022/05/17 05:54:47;;;;;;;10.93;9.80;;;17.30;99.90;;;;;;4995801;28;20454;-64
2022/05/17 05:57:14;;;;;;;11.73;9.47;;;17.30;99.90;;;;;;4994273;28;20948;-64
2022/05/17 05:59:41;;;;;;;11.10;9.90;;;17.40;99.90;;;;;;4994682;28;20544;-64
2022/05/17 06:02:10;;;;;;;11.27;10.27;;;17.60;99.90;;;;;;4994379;28;20488;-65
2022/05/17 06:04:37;;;;;;;10.53;9.47;;;17.70;99.90;;;;;;4994353;28;20462;-63
2022/05/17 06:07:05;;;;;;;9.90;8.90;;;17.80;99.90;;;;;;4994214;28;20955;-65
2022/05/17 06:09:32;;;;;;;13.27;10.03;;;18.00;99.90;;;;;;4994599;28;20460;-64
2022/05/17 06:11:59;;;;;;;15.60;9.70;;;18.10;99.90;;;;;;4994807;28;20525;-64
2022/05/17 06:14:27;;;;;;;14.63;10.10;;;18.40;99.90;;;;;;4995668;28;20457;-64
2022/05/17 06:16:54;;;;;;;11.93;9.00;;;18.50;99.90;;;;;;5000469;28;20445;-65
2022/05/17 06:19:23;;;;;;;11.53;10.23;;;18.80;99.90;;;;;;4996138;28;20458;-64
2022/05/17 06:21:50;;;;;;;12.00;10.07;;;18.90;99.90;;;;;;4994545;28;20880;-65
2022/05/17 06:24:17;;;;;;;12.63;10.47;;;19.10;99.90;;;;;;4994402;28;20492;-65
2022/05/17 06:26:45;;;;;;;14.50;9.90;;;19.20;99.90;;;;;;4994523;28;20518;-64
2022/05/17 06:29:11;;;;;;;10.97;9.87;;;19.40;99.90;;;;;;4994171;28;20823;-64
2022/05/17 06:31:38;;;;;;;12.90;10.30;;;19.60;99.90;;;;;;4994148;28;20509;-65
2022/05/17 06:34:05;;;;;;;9.87;8.93;;;19.70;99.90;;;;;;4994492;28;20482;-65
2022/05/17 06:36:33;;;;;;;15.70;11.97;;;19.90;99.90;;;;;;4994545;28;20630;-64
2022/05/17 06:39:00;;;;;;;11.10;9.97;;;20.10;99.90;;;;;;4994200;28;20458;-64
2022/05/17 06:41:27;;;;;;;10.53;9.50;;;20.50;99.90;;;;;;4994253;28;20473;-64
2022/05/17 06:43:54;;;;;;;10.00;8.63;;;20.90;99.90;;;;;;4994175;28;20454;-65
2022/05/17 06:46:20;;;;;;;10.47;8.60;;;21.40;99.90;;;;;;4997546;28;20501;-64
2022/05/17 06:48:47;;;;;;;10.97;8.20;;;22.00;99.90;;;;;;4997749;28;20469;-65
2022/05/17 06:51:14;;;;;;;10.17;9.17;;;22.50;99.90;;;;;;4997860;28;20477;-64
2022/05/17 06:53:42;;;;;;;7.70;7.00;;;23.10;99.90;;;;;;4997959;28;20454;-64
2022/05/17 06:56:09;;;;;;;11.47;7.17;;;23.50;99.90;;;;;;4997737;28;20456;-64
2022/05/17 06:58:36;;;;;;;8.93;7.30;;;24.10;99.90;;;;;;4997873;28;20556;-64
2022/05/17 07:01:02;;;;;;;9.47;7.37;;;24.30;99.90;;;;;;4997328;28;20493;-64
2022/05/17 07:03:29;;;;;;;7.97;7.23;;;24.40;99.90;;;;;;4997628;28;20457;-64
2022/05/17 07:05:56;;;;;;;10.40;7.60;;;24.60;99.90;;;;;;4997416;28;20988;-64
2022/05/17 07:08:23;;;;;;;10.23;6.27;;;24.80;99.90;;;;;;4997380;28;20464;-64
2022/05/17 07:13:35;;;;;;;11.80;5.90;;;25.20;99.90;;;;;;4998105;28;20417;-64
2022/05/17 07:16:02;;;;;;;6.30;5.70;;;25.60;99.90;;;;;;4997154;28;20933;-64
2022/05/17 07:18:29;;;;;;;8.87;6.23;;;26.10;99.90;;;;;;4997886;28;20458;-64
2022/05/17 07:20:58;;;;;;;8.57;6.10;;;26.40;99.90;;;;;;4997633;28;20480;-64
2022/05/17 07:23:25;;;;;;;8.00;6.10;;;26.50;99.90;;;;;;4997598;28;20462;-64
2022/05/17 07:25:55;;;;;;;7.73;6.37;;;27.00;99.90;;;;;;4997298;28;20480;-64
2022/05/17 07:28:23;;;;;;;7.40;5.80;;;27.00;99.90;;;;;;4997742;28;20544;-64
2022/05/17 07:30:51;;;;;;;7.10;5.97;;;27.40;99.90;;;;;;4997123;28;20469;-64
2022/05/17 07:33:19;;;;;;;6.83;6.17;;;27.50;99.90;;;;;;4997233;28;20460;-65
2022/05/17 07:35:46;;;;;;;7.43;6.50;;;27.70;99.90;;;;;;4997046;28;20473;-65
2022/05/17 07:38:13;;;;;;;8.93;7.40;;;28.10;99.90;;;;;;4996774;28;20453;-65
2022/05/17 07:40:41;;;;;;;6.90;6.20;;;28.60;99.90;;;;;;4997004;28;20976;-64
2022/05/17 07:43:10;;;;;;;7.13;6.43;;;28.70;97.90;;;;;;4997038;28;20941;-64
2022/05/17 07:45:37;;;;;;;13.83;7.50;;;28.90;98.20;;;;;;4996943;28;20935;-65
2022/05/17 07:48:04;;;;;;;7.80;7.00;;;29.40;97.20;;;;;;4996959;28;20916;-64
2022/05/17 07:50:32;;;;;;;7.33;5.80;;;29.30;94.40;;;;;;4997090;28;20481;-64
2022/05/17 07:53:04;;;;;;;6.73;6.00;;;29.40;93.70;;;;;;4997232;28;20485;-65
2022/05/17 07:55:31;;;;;;;8.50;6.43;;;29.40;93.70;;;;;;4996724;28;20442;-64
2022/05/17 07:57:57;;;;;;;6.90;6.27;;;29.80;91.90;;;;;;4997513;28;20457;-64
2022/05/17 08:00:25;;;;;;;6.03;5.43;;;29.40;93.00;;;;;;5002106;28;20477;-65
2022/05/17 08:02:55;;;;;;;7.23;4.30;;;29.60;91.10;;;;;;5009565;28;20842;-65
2022/05/17 08:05:23;;;;;;;5.27;4.77;;;29.80;91.40;;;;;;5003092;28;20438;-64
2022/05/17 08:07:50;;;;;;;5.93;5.33;;;30.30;90.50;;;;;;4997529;28;20461;-65
2022/05/17 08:10:17;;;;;;;5.07;4.23;;;30.60;88.40;;;;;;4997081;28;20458;-65
2022/05/17 08:12:43;;;;;;;5.30;4.80;;;30.80;84.10;;;;;;4996664;28;20983;-64
2022/05/17 08:15:11;;;;;;;5.80;4.53;;;30.90;78.70;;;;;;4996750;28;20458;-64
2022/05/17 08:17:39;;;;;;;5.33;4.80;;;30.90;83.80;;;;;;4996596;28;20953;-65
2022/05/17 08:20:09;;;;;;;5.47;4.60;;;31.10;81.40;;;;;;4996706;28;20456;-64
2022/05/17 08:22:38;;;;;;;4.93;4.37;;;31.20;81.50;;;;;;4999082;28;20529;-64
2022/05/17 08:27:50;;;;;;;6.03;4.60;;;30.60;79.10;;;;;;4996534;28;20441;-64
2022/05/17 08:30:21;;;;;;;4.97;4.47;;;30.50;79.70;;;;;;4996420;28;20940;-64
2022/05/17 08:35:40;;;;;;;4.23;3.80;;;30.60;79.20;;;;;;4996515;28;21017;-63
2022/05/17 08:38:08;;;;;;;6.53;4.20;;;30.70;80.50;;;;;;4996382;28;20450;-65
2022/05/17 08:40:45;;;;;;;4.40;4.00;;;30.90;79.80;;;;;;4995662;28;20989;-65
2022/05/17 08:43:17;;;;;;;4.77;3.20;;;31.00;80.30;;;;;;4996483;28;20560;-65
2022/05/17 08:46:07;;;;;;;3.80;2.83;;;31.00;74.30;;;;;;4995911;28;20473;-65
2022/05/17 08:48:44;;;;;;;4.60;2.90;;;30.90;69.50;;;;;;4996030;28;20537;-64
2022/05/17 08:51:16;;;;;;;5.10;2.77;;;30.90;73.30;;;;;;4995750;28;20484;-65
2022/05/17 08:53:45;;;;;;;5.30;3.70;;;30.80;71.30;;;;;;4995690;28;20453;-65
2022/05/17 08:56:13;;;;;;;4.83;4.00;;;30.50;75.30;;;;;;4995497;28;20450;-65
2022/05/17 08:58:43;;;;;;;4.30;3.90;;;30.50;74.20;;;;;;4995630;28;20465;-63
2022/05/17 09:01:19;;;;;;;4.57;3.80;;;30.40;75.00;;;;;;4995212;28;20489;-64
2022/05/17 09:03:56;;;;;;;3.63;3.43;;;30.50;73.90;;;;;;4995451;28;20447;-66
2022/05/17 09:06:32;;;;;;;4.80;3.23;;;30.80;75.40;;;;;;4996154;28;20480;-65
2022/05/17 09:09:05;;;;;;;4.93;3.40;;;31.10;74.30;;;;;;4994733;28;20444;-65
2022/05/17 09:11:38;;;;;;;4.60;3.30;;;31.40;70.60;;;;;;4995267;28;20478;-65
2022/05/17 09:14:10;;;;;;;4.30;3.50;;;31.70;71.60;;;;;;4995324;28;20469;-65
2022/05/17 09:16:40;;;;;;;5.20;3.47;;;31.90;68.00;;;;;;4995047;28;20488;-65
2022/05/17 09:19:09;;;;;;;4.57;3.33;;;32.10;67.20;;;;;;4995243;28;20477;-65
2022/05/17 09:21:38;;;;;;;5.17;3.67;;;32.00;67.60;;;;;;4994917;28;20478;-65
2022/05/17 09:24:07;;;;;;;7.43;3.60;;;32.00;68.00;;;;;;4995002;28;20516;-64
2022/05/17 09:26:35;;;;;;;5.03;4.30;;;31.90;69.70;;;;;;4995089;28;20887;-63
2022/05/17 09:29:08;;;;;;;4.80;4.07;;;31.90;65.80;;;;;;4994844;28;20450;-65
2022/05/17 09:31:37;;;;;;;4.33;3.93;;;32.10;64.70;;;;;;4994932;28;20473;-64
2022/05/17 09:34:07;;;;;;;4.27;3.70;;;31.80;66.40;;;;;;4994879;28;20829;-64
2022/05/17 09:36:44;;;;;;;6.97;3.27;;;32.00;64.90;;;;;;4995009;28;20456;-65
2022/05/17 09:39:11;;;;;;;5.40;3.60;;;32.30;64.40;;;;;;4994803;28;20446;-64
2022/05/17 09:41:41;;;;;;;3.60;3.30;;;32.00;63.30;;;;;;4994745;28;20477;-63
2022/05/17 09:44:12;;;;;;;4.90;3.10;;;31.40;66.60;;;;;;4994690;28;20512;-65
2022/05/17 09:46:44;;;;;;;5.30;3.90;;;31.50;69.00;;;;;;4994498;28;20466;-65
2022/05/17 09:55:09;;;;;;;6.80;3.90;;;32.20;64.70;;;;;;4994898;28;20820;-65
2022/05/17 09:57:36;;;;;;;6.33;3.90;;;32.50;66.50;;;;;;4994700;28;20442;-65
2022/05/17 10:00:12;;;;;;;6.77;4.63;;;32.80;62.90;;;;;;4994644;28;20877;-64
2022/05/17 10:02:43;;;;;;;4.40;4.03;;;33.20;61.50;;;;;;4994783;28;20433;-64
2022/05/17 10:05:29;;;;;;;8.13;4.07;;;33.40;63.10;;;;;;4995192;28;20493;-65
2022/05/17 10:08:01;;;;;;;4.07;3.77;;;33.80;66.10;;;;;;4994510;28;20468;-65
2022/05/17 10:10:35;;;;;;;4.50;4.10;;;34.00;60.80;;;;;;4994107;28;20901;-65
2022/05/17 10:13:14;;;;;;;4.07;3.70;;;34.40;59.60;;;;;;4994426;28;20441;-65
2022/05/17 10:15:43;;;;;;;3.73;3.43;;;34.70;58.70;;;;;;4994084;28;20913;-65
2022/05/17 10:18:23;;;;;;;5.57;4.00;;;34.70;60.00;;;;;;4994621;28;20453;-65
2022/05/17 10:20:55;;;;;;;5.60;4.40;;;34.20;61.50;;;;;;4998222;28;20480;-65
2022/05/17 10:23:31;;;;;;;3.90;3.47;;;34.00;58.20;;;;;;4998416;28;20441;-65
2022/05/17 10:26:03;;;;;;;7.27;3.93;;;34.20;57.10;;;;;;4998426;28;20448;-66
2022/05/17 10:28:39;;;;;;;4.30;4.00;;;34.10;58.90;;;;;;4998104;28;20509;-65
2022/05/17 10:31:13;;;;;;;4.70;3.87;;;33.60;62.50;;;;;;4998468;28;20477;-65
2022/05/17 10:33:54;;;;;;;4.83;3.47;;;33.80;59.70;;;;;;4998469;28;20854;-66
2022/05/17 10:36:26;;;;;;;6.60;3.40;;;33.80;60.90;;;;;;4998304;28;20474;-65
2022/05/17 10:39:02;;;;;;;4.67;3.67;;;34.10;59.50;;;;;;4998292;28;20449;-64
2022/05/17 10:41:29;;;;;;;6.60;4.10;;;34.30;57.80;;;;;;4998077;28;20473;-64
2022/05/17 10:43:56;;;;;;;10.63;4.37;;;34.60;56.90;;;;;;4998107;28;20453;-65
2022/05/17 10:46:28;;;;;;;6.87;5.13;;;34.40;57.00;;;;;;4997485;28;20991;-64
2022/05/17 10:49:06;;;;;;;8.07;3.70;;;34.10;55.70;;;;;;4998055;28;20441;-64
2022/05/17 10:51:38;;;;;;;4.50;3.87;;;34.00;57.40;;;;;;4997884;28;20472;-65
2022/05/17 10:54:19;;;;;;;4.03;3.50;;;34.00;57.00;;;;;;4998050;28;20841;-65
2022/05/17 10:56:54;;;;;;;4.53;3.00;;;34.10;57.30;;;;;;4997821;28;20444;-65
2022/05/17 10:59:32;;;;;;;9.00;4.37;;;33.70;59.20;;;;;;4998360;28;20441;-64
2022/05/17 11:02:14;;;;;;;4.00;3.03;;;33.70;58.70;;;;;;4997410;28;20992;-64
2022/05/17 11:05:03;;;;;;;4.50;2.77;;;34.00;58.20;;;;;;4997894;28;20804;-64
2022/05/17 11:07:43;;;;;;;6.30;4.77;;;33.80;56.60;;;;;;4997724;28;20465;-64
2022/05/17 11:10:21;;;;;;;5.83;3.60;;;33.80;57.80;;;;;;4998385;28;20451;-64
2022/05/17 11:12:53;;;;;;;6.00;3.93;;;33.60;58.40;;;;;;4998304;28;20877;-65
2022/05/17 11:15:24;;;;;;;3.97;3.00;;;33.50;55.60;;;;;;4997892;28;20452;-65
2022/05/17 11:17:55;;;;;;;5.67;3.00;;;33.50;56.50;;;;;;4997379;28;20897;-65
2022/05/17 11:20:28;;;;;;;3.07;2.87;;;33.00;59.50;;;;;;4997650;28;20493;-65
2022/05/17 11:23:16;;;;;;;4.20;3.17;;;32.70;57.80;;;;;;4997526;28;20438;-65
2022/05/17 11:25:59;;;;;;;6.57;3.80;;;32.40;60.10;;;;;;4997567;28;20449;-64
2022/05/17 11:28:58;;;;;;;2.50;2.30;;;32.10;59.80;;;;;;4997416;28;20488;-65
2022/05/17 11:31:37;;;;;;;4.00;3.43;;;31.70;58.90;;;;;;4996819;28;20477;-65
2022/05/17 11:34:32;;;;;;;3.60;2.90;;;31.20;57.50;;;;;;4997831;28;20485;-65
2022/05/17 11:37:01;;;;;;;4.33;2.83;;;31.10;59.80;;;;;;4997018;28;20473;-65
2022/05/17 11:39:50;;;;;;;3.43;2.80;;;31.30;59.60;;;;;;4997170;28;20798;-65
2022/05/17 11:42:29;;;;;;;4.77;2.40;;;31.50;62.20;;;;;;4996781;28;20813;-65
2022/05/17 11:44:58;;;;;;;4.03;3.30;;;31.60;59.60;;;;;;4999072;28;20438;-65
2022/05/17 11:47:31;;;;;;;5.30;3.10;;;31.40;57.40;;;;;;5007749;28;20888;-65
2022/05/17 11:50:22;;;;;;;3.70;2.50;;;31.20;57.70;;;;;;5003189;28;20433;-65
2022/05/17 11:52:55;;;;;;;2.70;2.50;;;31.00;58.40;;;;;;4997032;28;20492;-65
2022/05/17 11:55:27;;;;;;;4.57;3.10;;;30.90;57.20;;;;;;4996455;28;20493;-65
2022/05/17 11:58:03;;;;;;;5.03;2.47;;;30.80;63.30;;;;;;4996361;28;20905;-65
2022/05/17 12:00:48;;;;;;;2.40;2.13;;;30.40;56.60;;;;;;4996239;28;20972;-65
2022/05/17 12:03:46;;;;;;;2.27;2.10;;;30.00;58.20;;;;;;4996876;28;20438;-65
2022/05/17 12:06:33;;;;;;;1.70;1.60;;;29.90;62.40;;;;;;4996612;28;20442;-65
2022/05/17 12:09:00;;;;;;;2.40;1.50;;;30.00;63.80;;;;;;4996682;28;20489;-65
2022/05/17 12:11:36;;;;;;;2.20;2.00;;;30.10;58.60;;;;;;4996080;28;20528;-64
2022/05/17 12:14:18;;;;;;;1.97;1.40;;;30.20;56.90;;;;;;4996451;28;20831;-65
2022/05/17 12:16:47;;;;;;;3.03;1.73;;;30.10;60.00;;;;;;4996258;28;20786;-65
2022/05/17 12:19:22;;;;;;;1.50;1.40;;;30.20;56.90;;;;;;4997004;28;20458;-64
2022/05/17 12:21:57;;;;;;;4.60;2.00;;;30.30;57.90;;;;;;4996056;28;20473;-65
2022/05/17 12:24:32;;;;;;;3.57;2.57;;;30.40;63.30;;;;;;4996184;28;20473;-65
2022/05/17 12:27:12;;;;;;;5.77;2.77;;;30.50;58.50;;;;;;4996133;28;20473;-66
2022/05/17 12:32:30;;;;;;;2.70;1.77;;;30.40;56.80;;;;;;4995680;28;20599;-65
2022/05/17 12:34:57;;;;;;;2.77;2.20;;;30.40;61.00;;;;;;4996070;28;20457;-64
2022/05/17 12:37:27;;;;;;;2.77;2.23;;;30.40;60.20;;;;;;4996804;28;20548;-65
2022/05/17 12:45:28;;;;;;;2.33;1.80;;;30.10;63.60;;;;;;4996012;28;20421;-65
2022/05/17 12:47:56;;;;;;;2.47;1.80;;;30.20;61.20;;;;;;4995845;28;20823;-65
2022/05/17 12:50:25;;;;;;;2.20;1.90;;;30.30;63.30;;;;;;4996207;28;20465;-65
2022/05/17 12:52:55;;;;;;;3.43;1.90;;;30.20;63.00;;;;;;4995597;28;20553;-65
2022/05/17 12:55:24;;;;;;;2.70;1.80;;;30.20;58.20;;;;;;4995385;28;20462;-65
2022/05/17 12:57:52;;;;;;;2.40;2.20;;;29.90;60.60;;;;;;4995601;28;20450;-65
2022/05/17 13:00:28;;;;;;;2.77;2.10;;;29.80;60.40;;;;;;4995100;28;20920;-65
2022/05/17 13:02:58;;;;;;;2.90;1.90;;;30.00;62.70;;;;;;4995149;28;20532;-65
2022/05/17 13:05:29;;;;;;;3.47;1.73;;;29.90;63.30;;;;;;4995918;28;20445;-65
2022/05/17 13:08:05;;;;;;;3.90;1.90;;;30.10;58.20;;;;;;4995530;28;20461;-65
2022/05/17 13:10:32;;;;;;;5.00;2.40;;;30.10;62.50;;;;;;4995280;28;20500;-65
2022/05/17 13:13:00;;;;;;;5.40;1.97;;;30.20;60.70;;;;;;4995486;28;20508;-65
2022/05/17 13:15:29;;;;;;;2.20;1.77;;;30.20;58.70;;;;;;4995206;28;20866;-65
2022/05/17 13:17:58;;;;;;;3.13;1.57;;;30.30;58.20;;;;;;4995452;28;20548;-65
2022/05/17 13:20:28;;;;;;;3.63;1.90;;;30.00;58.70;;;;;;4994992;28;20458;-65
2022/05/17 13:22:55;;;;;;;2.13;1.93;;;29.80;58.80;;;;;;4995134;28;20497;-65
2022/05/17 13:25:27;;;;;;;2.23;1.63;;;29.70;57.60;;;;;;4995067;28;20460;-65
2022/05/17 13:27:55;;;;;;;2.10;1.70;;;29.60;61.10;;;;;;4994973;28;20465;-65
2022/05/17 13:30:26;;;;;;;2.00;1.90;;;29.60;58.90;;;;;;4994940;28;20457;-65
2022/05/17 13:32:55;;;;;;;2.80;2.30;;;29.60;60.70;;;;;;4995105;28;20442;-65
2022/05/17 13:35:24;;;;;;;1.73;1.73;;;29.40;58.30;;;;;;4995986;28;20458;-65
2022/05/17 13:38:02;;;;;;;2.40;1.87;;;29.10;59.80;;;;;;4995397;28;20454;-65
2022/05/17 13:40:49;;;;;;;3.27;1.83;;;29.00;59.40;;;;;;4995405;28;20511;-65
2022/05/17 13:43:32;;;;;;;2.00;1.63;;;28.90;59.40;;;;;;4994826;28;20442;-65
2022/05/17 13:46:12;;;;;;;3.20;2.00;;;28.90;61.10;;;;;;4994828;28;20437;-65
2022/05/17 13:48:42;;;;;;;1.73;1.63;;;29.00;60.50;;;;;;4994408;28;21027;-65
2022/05/17 13:51:12;;;;;;;4.07;1.50;;;29.20;59.70;;;;;;4994474;28;20482;-65
2022/05/17 13:53:44;;;;;;;5.27;2.30;;;29.30;62.00;;;;;;4994311;28;20500;-65
2022/05/17 13:56:12;;;;;;;3.27;2.00;;;29.00;60.40;;;;;;4994709;28;20474;-65
2022/05/17 13:58:40;;;;;;;2.13;1.90;;;29.00;60.00;;;;;;4994544;28;20456;-63
2022/05/17 14:01:12;;;;;;;3.10;2.10;;;28.70;59.40;;;;;;4994165;28;20501;-64
2022/05/17 14:03:42;;;;;;;4.10;1.90;;;28.70;60.50;;;;;;4994504;28;20445;-65
2022/05/17 14:06:18;;;;;;;1.60;1.50;;;28.80;62.50;;;;;;4994527;28;20422;-65
2022/05/17 14:11:54;;;;;;;1.80;1.70;;;28.90;61.30;;;;;;4994363;28;20460;-65
2022/05/17 14:14:23;;;;;;;3.33;1.80;;;28.60;59.30;;;;;;4994410;28;20442;-65
2022/05/17 14:16:55;;;;;;;2.80;2.27;;;28.80;60.80;;;;;;4994051;28;20945;-64
2022/05/17 14:19:26;;;;;;;5.70;1.80;;;28.70;62.40;;;;;;4994044;28;20434;-64
2022/05/17 14:21:55;;;;;;;2.50;1.60;;;28.70;58.90;;;;;;4994198;28;20512;-64
2022/05/17 14:24:22;;;;;;;3.07;1.90;;;28.70;59.70;;;;;;4993975;28;20949;-64
2022/05/17 14:26:53;;;;;;;1.87;1.77;;;28.80;62.10;;;;;;4994248;28;20454;-65
2022/05/17 14:29:21;;;;;;;4.23;1.83;;;28.80;60.20;;;;;;4993885;28;20462;-65
2022/05/17 14:31:48;;;;;;;2.30;1.80;;;29.00;60.30;;;;;;4994203;28;20477;-64
2022/05/17 14:34:18;;;;;;;2.40;1.63;;;29.20;62.30;;;;;;4993963;28;20953;-65
2022/05/17 14:36:47;;;;;;;1.87;1.77;;;29.40;61.10;;;;;;4994137;28;20604;-64
2022/05/17 14:39:15;;;;;;;2.10;1.57;;;29.60;60.10;;;;;;4994152;28;20449;-64
2022/05/17 14:41:42;;;;;;;4.40;2.20;;;29.50;60.60;;;;;;4993832;28;20847;-64
2022/05/17 14:44:10;;;;;;;3.13;1.97;;;29.60;57.40;;;;;;4994159;28;20515;-64
2022/05/17 14:46:38;;;;;;;2.57;2.00;;;29.40;59.80;;;;;;4994305;28;20457;-64
2022/05/17 14:49:05;;;;;;;2.50;1.70;;;29.20;58.70;;;;;;4993943;28;20477;-64
2022/05/17 14:51:32;;;;;;;2.23;1.60;;;29.10;58.50;;;;;;4994086;28;20473;-65
2022/05/17 14:54:00;;;;;;;2.30;1.67;;;29.00;59.00;;;;;;4994157;28;20457;-64
2022/05/17 14:56:27;;;;;;;4.23;1.80;;;29.00;60.10;;;;;;4994031;28;20461;-65
2022/05/17 14:58:54;;;;;;;2.03;1.93;;;29.00;59.20;;;;;;4994178;28;20445;-64
2022/05/17 15:01:23;;;;;;;2.20;2.00;;;29.00;60.00;;;;;;4993948;28;20548;-64
2022/05/17 15:03:54;;;;;;;1.67;1.57;;;29.00;62.60;;;;;;4994175;28;20458;-65
2022/05/17 15:06:20;;;;;;;2.80;1.60;;;28.80;58.70;;;;;;4995853;28;20442;-64
2022/05/17 15:08:48;;;;;;;3.37;2.00;;;28.60;59.80;;;;;;4998147;28;20481;-64
2022/05/17 15:11:19;;;;;;;2.20;1.70;;;28.70;61.80;;;;;;4997418;28;20478;-64
2022/05/17 15:13:46;;;;;;;1.90;1.80;;;28.70;60.20;;;;;;4997979;28;20846;-64
2022/05/17 15:16:16;;;;;;;1.57;1.47;;;28.90;63.90;;;;;;4997322;28;20983;-65
2022/05/17 15:18:44;;;;;;;2.17;2.00;;;28.90;60.80;;;;;;4997633;28;20457;-65
2022/05/17 15:21:11;;;;;;;2.10;1.77;;;29.00;59.40;;;;;;4997547;28;20474;-65
2022/05/17 15:23:40;;;;;;;1.73;1.63;;;29.10;60.20;;;;;;4997824;28;20460;-65
2022/05/17 15:26:08;;;;;;;2.03;1.90;;;29.10;61.30;;;;;;4997284;28;20929;-65
2022/05/17 15:28:38;;;;;;;1.80;1.70;;;29.10;59.20;;;;;;4997384;28;20834;-65
2022/05/17 15:31:05;;;;;;;1.57;1.47;;;29.10;59.80;;;;;;4997455;28;20529;-66
2022/05/17 15:33:35;;;;;;;3.07;2.10;;;28.90;60.10;;;;;;4997319;28;20525;-64
2022/05/17 15:36:02;;;;;;;4.67;2.20;;;28.70;60.60;;;;;;4996822;28;21007;-65
2022/05/17 15:38:30;;;;;;;2.40;2.20;;;28.50;60.60;;;;;;4997314;28;20450;-63
2022/05/17 15:40:59;;;;;;;1.83;1.70;;;28.20;61.20;;;;;;4997215;28;20493;-64
2022/05/17 15:43:26;;;;;;;2.70;1.73;;;28.00;60.90;;;;;;4996851;28;20545;-64
2022/05/17 15:45:58;;;;;;;2.63;2.30;;;27.70;60.90;;;;;;4996735;28;20901;-65
2022/05/17 15:53:54;;;;;;;7.10;2.20;;;27.60;61.80;;;;;;4996843;28;20417;-65
2022/05/17 15:56:21;;;;;;;2.47;1.53;;;27.70;60.50;;;;;;4996834;28;20458;-65
2022/05/17 15:58:48;;;;;;;2.30;1.80;;;27.80;62.10;;;;;;4997749;28;20456;-65
2022/05/17 16:01:20;;;;;;;2.77;2.57;;;27.80;59.90;;;;;;5004915;28;20485;-65
2022/05/17 16:03:49;;;;;;;1.90;1.80;;;27.90;61.60;;;;;;5001207;28;20438;-64
2022/05/17 16:06:17;;;;;;;1.63;1.50;;;27.80;61.70;;;;;;4996775;28;20508;-65
2022/05/17 16:08:45;;;;;;;4.60;1.70;;;27.80;62.00;;;;;;4996971;28;20535;-65
2022/05/17 16:13:56;;;;;;;1.87;1.77;;;27.90;60.00;;;;;;4996646;28;20418;-65
2022/05/17 16:16:24;;;;;;;2.10;1.60;;;28.00;60.70;;;;;;4996451;28;20480;-64
2022/05/17 16:18:53;;;;;;;3.07;1.47;;;28.10;58.20;;;;;;4996271;28;20449;-64
2022/05/17 16:21:21;;;;;;;1.67;1.57;;;28.10;57.40;;;;;;4996530;28;20504;-65
2022/05/17 16:23:47;;;;;;;2.90;1.57;;;28.00;56.80;;;;;;4996340;28;20565;-65
2022/05/17 16:26:14;;;;;;;4.83;1.47;;;28.00;58.10;;;;;;4996178;28;20457;-65
2022/05/17 16:28:42;;;;;;;1.53;1.20;;;27.80;57.10;;;;;;4996154;28;20524;-64
2022/05/17 16:31:10;;;;;;;1.93;1.50;;;27.70;59.20;;;;;;4996248;28;20474;-66
2022/05/17 16:33:40;;;;;;;1.47;1.37;;;27.70;61.40;;;;;;4996583;28;20462;-65
2022/05/17 16:36:09;;;;;;;3.57;1.80;;;27.60;61.80;;;;;;4996835;28;20462;-65
2022/05/17 16:38:37;;;;;;;2.30;1.60;;;27.40;61.50;;;;;;4996624;28;20508;-64
2022/05/17 16:41:06;;;;;;;2.70;1.80;;;27.20;61.60;;;;;;4997168;28;20473;-64
2022/05/17 16:43:33;;;;;;;2.30;2.10;;;27.10;62.30;;;;;;4996613;28;20454;-65
2022/05/17 16:46:02;;;;;;;1.37;1.37;;;27.00;62.00;;;;;;4996640;28;20550;-65
2022/05/17 16:48:29;;;;;;;2.73;1.70;;;26.80;61.10;;;;;;4995986;28;20547;-65
2022/05/17 16:50:57;;;;;;;3.60;1.87;;;26.80;61.90;;;;;;4996962;28;20576;-65
2022/05/17 16:53:25;;;;;;;2.40;2.20;;;26.70;62.70;;;;;;4995943;28;20454;-65
2022/05/17 16:55:52;;;;;;;2.30;1.90;;;26.70;61.90;;;;;;4995822;28;20454;-64
2022/05/17 16:58:19;;;;;;;4.30;2.40;;;26.60;62.30;;;;;;4995857;28;20852;-65
2022/05/17 17:00:46;;;;;;;3.63;2.73;;;26.60;62.50;;;;;;4995647;28;20477;-64
2022/05/17 17:03:14;;;;;;;2.67;1.87;;;26.60;63.10;;;;;;4995730;28;20442;-65
2022/05/17 17:05:43;;;;;;;2.47;2.27;;;26.70;63.00;;;;;;4995730;28;20457;-65
2022/05/17 17:08:12;;;;;;;1.80;1.70;;;26.70;65.20;;;;;;4995685;28;20454;-65
2022/05/17 17:10:39;;;;;;;2.87;1.67;;;26.60;66.40;;;;;;4995801;28;20473;-65
2022/05/17 17:13:06;;;;;;;3.23;1.97;;;26.60;68.40;;;;;;4995980;28;20509;-65
2022/05/17 17:15:34;;;;;;;2.63;1.90;;;26.50;68.00;;;;;;4996329;28;20465;-65
2022/05/17 17:18:02;;;;;;;2.60;2.00;;;26.50;67.80;;;;;;4995642;28;20461;-65
2022/05/17 17:20:30;;;;;;;2.10;2.00;;;26.40;67.60;;;;;;4995538;28;20581;-65
2022/05/17 17:22:58;;;;;;;3.27;2.40;;;26.30;68.30;;;;;;4995840;28;20469;-64
2022/05/17 17:25:26;;;;;;;3.70;1.70;;;26.20;68.90;;;;;;4995466;28;20457;-65
2022/05/17 17:27:56;;;;;;;2.23;2.00;;;26.10;69.90;;;;;;4994836;28;20462;-64
2022/05/17 17:30:24;;;;;;;5.97;2.00;;;26.00;69.80;;;;;;4994686;28;20560;-64
2022/05/17 17:38:22;;;;;;;2.30;2.20;;;25.50;70.90;;;;;;4995170;28;20435;-65